createdAt,value
2019-06-26T00:02:28.838Z,96060.00
2019-06-26T00:04:59.339Z,96060.00
2019-06-26T00:07:29.891Z,96051.00
2019-06-26T00:10:00.328Z,96061.00
2019-06-26T00:12:30.742Z,96059.00
2019-06-26T00:15:01.107Z,96058.00
2019-06-26T00:17:31.496Z,96065.00
2019-06-26T00:20:01.920Z,96075.00
2019-06-26T00:22:32.723Z,96079.00
2019-06-26T00:25:03.134Z,96066.00
2019-06-26T00:27:33.518Z,96065.00
2019-06-26T00:30:04.399Z,96067.00
2019-06-26T00:32:34.813Z,96064.00
2019-06-26T00:35:06.153Z,96065.00
2019-06-26T00:37:36.557Z,96064.00
2019-06-26T00:40:08.257Z,96065.00
2019-06-26T00:42:38.663Z,96066.00
2019-06-26T00:45:09.567Z,96063.00
2019-06-26T00:47:39.958Z,96066.00
2019-06-26T00:50:11.274Z,96065.00
2019-06-26T00:52:41.734Z,96068.00
2019-06-26T00:55:13.261Z,96060.00
2019-06-26T00:57:43.681Z,96071.00
2019-06-26T01:00:15.998Z,96070.00
2019-06-26T01:02:46.413Z,96066.00
2019-06-26T01:05:16.907Z,96064.00
2019-06-26T01:07:47.265Z,96065.00
2019-06-26T01:10:18.514Z,96066.00
2019-06-26T01:12:48.899Z,96064.00
2019-06-26T01:15:19.321Z,96071.00
2019-06-26T01:17:49.663Z,96062.00
2019-06-26T01:20:20.120Z,96067.00
2019-06-26T01:22:50.448Z,96063.00
2019-06-26T01:25:20.880Z,96060.00
2019-06-26T01:27:51.260Z,96065.00
2019-06-26T01:30:22.483Z,96065.00
2019-06-26T01:32:52.847Z,96071.00
2019-06-26T01:35:23.286Z,96069.00
2019-06-26T01:37:53.790Z,96076.00
2019-06-26T01:40:25.358Z,96072.00
2019-06-26T01:42:55.797Z,96066.00
2019-06-26T01:45:26.210Z,96056.00
2019-06-26T01:47:56.610Z,96060.00
2019-06-26T01:50:27.016Z,96064.00
2019-06-26T01:52:57.392Z,96062.00
2019-06-26T01:55:27.880Z,96063.00
2019-06-26T01:57:58.271Z,96061.00
2019-06-26T02:00:28.708Z,96061.00
2019-06-26T02:02:59.062Z,96058.00
2019-06-26T02:05:29.461Z,96068.00
2019-06-26T02:07:59.881Z,96060.00
2019-06-26T02:10:30.296Z,96062.00
2019-06-26T02:13:00.690Z,96061.00
2019-06-26T02:15:31.082Z,96076.00
2019-06-26T02:18:01.476Z,96069.00
2019-06-26T02:20:31.874Z,96067.00
2019-06-26T02:23:02.255Z,96070.00
2019-06-26T02:25:32.661Z,96076.00
2019-06-26T02:28:03.237Z,96066.00
2019-06-26T02:30:33.812Z,96069.00
2019-06-26T02:33:04.210Z,96077.00
2019-06-26T02:35:34.640Z,96075.00
2019-06-26T02:38:05.084Z,96075.00
2019-06-26T02:40:35.475Z,96079.00
2019-06-26T02:43:07.214Z,96078.00
2019-06-26T02:45:38.275Z,96087.00
2019-06-26T02:48:08.667Z,96080.00
2019-06-26T02:50:39.059Z,96078.00
2019-06-26T02:53:09.467Z,96078.00
2019-06-26T02:55:39.795Z,96082.00
2019-06-26T02:58:10.190Z,96085.00
2019-06-26T03:00:40.620Z,96083.00
2019-06-26T03:03:10.979Z,96087.00
2019-06-26T03:05:41.378Z,96083.00
2019-06-26T03:08:11.768Z,96082.00
2019-06-26T03:10:42.156Z,96079.00
2019-06-26T03:13:12.577Z,96084.00
2019-06-26T03:15:42.943Z,96082.00
2019-06-26T03:18:13.436Z,96084.00
2019-06-26T03:20:48.981Z,96086.00
2019-06-26T03:23:19.425Z,96089.00
2019-06-26T03:25:49.847Z,96077.00
2019-06-26T03:28:20.284Z,96083.00
2019-06-26T03:30:50.780Z,96084.00
2019-06-26T03:33:21.515Z,96085.00
2019-06-26T03:35:52.011Z,96085.00
2019-06-26T03:38:22.452Z,96080.00
2019-06-26T03:40:52.889Z,96086.00
2019-06-26T03:43:23.283Z,96091.00
2019-06-26T03:45:53.692Z,96098.00
2019-06-26T03:48:24.095Z,96093.00
2019-06-26T03:50:54.471Z,96095.00
2019-06-26T03:53:24.863Z,96092.00
2019-06-26T03:55:55.242Z,96099.00
2019-06-26T03:58:25.712Z,96101.00
2019-06-26T04:00:56.166Z,96101.00
2019-06-26T04:03:26.636Z,96102.00
2019-06-26T04:05:57.001Z,96100.00
2019-06-26T04:08:27.418Z,96103.00
2019-06-26T04:10:57.814Z,96106.00
2019-06-26T04:13:28.251Z,96106.00
2019-06-26T04:15:58.664Z,96109.00
2019-06-26T04:18:29.090Z,96106.00
2019-06-26T04:20:59.497Z,96101.00
2019-06-26T04:23:29.893Z,96101.00
2019-06-26T04:26:00.301Z,96107.00
2019-06-26T04:28:30.717Z,96107.00
2019-06-26T04:31:01.148Z,96100.00
2019-06-26T04:33:31.544Z,96101.00
2019-06-26T04:36:02.174Z,96110.00
2019-06-26T04:38:32.570Z,96110.00
2019-06-26T04:41:02.995Z,96116.00
2019-06-26T04:43:33.425Z,96117.00
2019-06-26T04:46:03.845Z,96114.00
2019-06-26T04:48:34.213Z,96118.00
2019-06-26T04:51:04.666Z,96116.00
2019-06-26T04:53:35.034Z,96121.00
2019-06-26T04:56:05.463Z,96119.00
2019-06-26T04:58:35.855Z,96112.00
2019-06-26T05:01:06.302Z,96122.00
2019-06-26T05:03:36.686Z,96113.00
2019-06-26T05:06:07.158Z,96114.00
2019-06-26T05:08:37.612Z,96117.00
2019-06-26T05:11:08.026Z,96120.00
2019-06-26T05:13:38.439Z,96112.00
2019-06-26T05:16:14.780Z,96124.00
2019-06-26T05:18:40.966Z,96133.00
2019-06-26T05:21:11.454Z,96122.00
2019-06-26T05:23:41.832Z,96126.00
2019-06-26T05:26:12.396Z,96123.00
2019-06-26T05:28:42.778Z,96120.00
2019-06-26T05:31:13.186Z,96127.00
2019-06-26T05:33:43.642Z,96128.00
2019-06-26T05:36:14.041Z,96131.00
2019-06-26T05:38:44.561Z,96132.00
2019-06-26T05:41:15.024Z,96136.00
2019-06-26T05:43:45.450Z,96133.00
2019-06-26T05:46:29.967Z,96137.00
2019-06-26T05:48:48.015Z,96142.00
2019-06-26T05:51:18.440Z,96131.00
2019-06-26T05:53:48.844Z,96128.00
2019-06-26T05:56:19.225Z,96131.00
2019-06-26T05:58:49.650Z,96138.00
2019-06-26T06:01:20.053Z,96137.00
2019-06-26T06:03:50.474Z,96140.00
2019-06-26T06:06:22.975Z,96147.00
2019-06-26T06:08:53.368Z,96139.00
2019-06-26T06:11:23.785Z,96143.00
2019-06-26T06:13:54.213Z,96149.00
2019-06-26T06:16:24.618Z,96146.00
2019-06-26T06:18:55.333Z,96155.00
2019-06-26T06:21:27.779Z,96147.00
2019-06-26T06:23:58.428Z,96154.00
2019-06-26T06:26:28.809Z,96153.00
2019-06-26T06:28:59.225Z,96160.00
2019-06-26T06:31:29.634Z,96152.00
2019-06-26T06:34:00.045Z,96157.00
2019-06-26T06:36:30.417Z,96164.00
2019-06-26T06:39:00.856Z,96160.00
2019-06-26T06:41:31.254Z,96153.00
2019-06-26T06:44:01.670Z,96166.00
2019-06-26T06:46:32.064Z,96158.00
2019-06-26T06:49:02.497Z,96173.00
2019-06-26T06:51:32.915Z,96170.00
2019-06-26T06:54:03.426Z,96175.00
2019-06-26T06:56:33.851Z,96178.00
2019-06-26T06:59:04.305Z,96175.00
2019-06-26T07:01:34.702Z,96176.00
2019-06-26T07:04:05.168Z,96184.00
2019-06-26T07:06:35.584Z,96181.00
2019-06-26T07:09:07.851Z,96187.00
2019-06-26T07:11:38.235Z,96184.00
2019-06-26T07:14:08.631Z,96185.00
2019-06-26T07:16:39.057Z,96176.00
2019-06-26T07:19:09.493Z,96175.00
2019-06-26T07:21:39.922Z,96178.00
2019-06-26T07:24:10.368Z,96181.00
2019-06-26T07:26:40.811Z,96189.00
2019-06-26T07:29:11.174Z,96189.00
2019-06-26T07:31:41.654Z,96193.00
2019-06-26T07:34:12.110Z,96194.00
2019-06-26T07:36:42.520Z,96196.00
2019-06-26T07:39:13.421Z,96193.00
2019-06-26T07:41:43.862Z,96194.00
2019-06-26T07:44:14.331Z,96197.00
2019-06-26T07:46:44.742Z,96196.00
2019-06-26T07:49:15.143Z,96197.00
2019-06-26T07:51:45.541Z,96203.00
2019-06-26T07:54:16.329Z,96197.00
2019-06-26T07:56:46.778Z,96197.00
2019-06-26T07:59:17.158Z,96203.00
2019-06-26T08:01:47.553Z,96202.00
2019-06-26T08:04:17.987Z,96200.00
2019-06-26T08:06:48.370Z,96199.00
2019-06-26T08:09:18.775Z,96199.00
2019-06-26T08:11:49.342Z,96195.00
2019-06-26T08:14:19.782Z,96199.00
2019-06-26T08:16:50.182Z,96207.00
2019-06-26T08:19:20.613Z,96207.00
2019-06-26T08:21:51.000Z,96197.00
2019-06-26T08:24:21.427Z,96198.00
2019-06-26T08:26:51.847Z,96211.00
2019-06-26T08:29:22.213Z,96206.00
2019-06-26T08:31:52.619Z,96212.00
2019-06-26T08:34:23.037Z,96212.00
2019-06-26T08:36:53.465Z,96214.00
2019-06-26T08:39:23.867Z,96209.00
2019-06-26T08:41:54.258Z,96203.00
2019-06-26T08:44:24.654Z,96206.00
2019-06-26T08:46:55.162Z,96201.00
2019-06-26T08:49:26.669Z,96211.00
2019-06-26T08:51:58.399Z,96217.00
2019-06-26T08:54:28.870Z,96208.00
2019-06-26T08:56:59.269Z,96206.00
2019-06-26T08:59:29.723Z,96210.00
2019-06-26T09:02:00.279Z,96211.00
2019-06-26T09:04:31.277Z,96206.00
2019-06-26T09:07:02.899Z,96213.00
2019-06-26T09:09:33.352Z,96208.00
2019-06-26T09:12:03.847Z,96215.00
2019-06-26T09:14:34.276Z,96210.00
2019-06-26T09:17:04.668Z,96213.00
2019-06-26T09:19:35.121Z,96217.00
2019-06-26T09:22:07.228Z,96219.00
2019-06-26T09:24:37.673Z,96218.00
2019-06-26T09:27:08.106Z,96219.00
2019-06-26T09:29:38.532Z,96212.00
2019-06-26T09:32:08.960Z,96222.00
2019-06-26T09:34:39.490Z,96221.00
2019-06-26T09:37:09.966Z,96220.00
2019-06-26T09:39:40.471Z,96219.00
2019-06-26T09:42:10.876Z,96231.00
2019-06-26T09:44:41.315Z,96223.00
2019-06-26T09:47:15.475Z,96227.00
2019-06-26T09:49:43.830Z,96220.00
2019-06-26T09:52:14.362Z,96223.00
2019-06-26T09:54:44.774Z,96223.00
2019-06-26T09:57:15.231Z,96223.00
2019-06-26T09:59:45.656Z,96235.00
2019-06-26T10:02:16.064Z,96239.00
2019-06-26T10:04:46.484Z,96244.00
2019-06-26T10:07:16.937Z,96237.00
2019-06-26T10:09:47.337Z,96234.00
2019-06-26T10:12:17.751Z,96234.00
2019-06-26T10:14:48.317Z,96230.00
2019-06-26T10:17:18.721Z,96232.00
2019-06-26T10:19:49.121Z,96221.00
2019-06-26T10:22:19.518Z,96222.00
2019-06-26T10:24:50.016Z,96222.00
2019-06-26T10:27:20.375Z,96220.00
2019-06-26T10:29:50.815Z,96227.00
2019-06-26T10:32:21.260Z,96218.00
2019-06-26T10:34:51.705Z,96227.00
2019-06-26T10:37:22.079Z,96228.00
2019-06-26T10:39:52.501Z,96228.00
2019-06-26T10:42:22.887Z,96223.00
2019-06-26T10:44:53.279Z,96232.00
2019-06-26T10:47:23.726Z,96221.00
2019-06-26T10:49:54.175Z,96230.00
2019-06-26T10:52:24.558Z,96231.00
2019-06-26T10:54:55.004Z,96223.00
2019-06-26T10:57:25.411Z,96227.00
2019-06-26T10:59:56.179Z,96217.00
2019-06-26T11:02:26.767Z,96221.00
2019-06-26T11:04:57.211Z,96217.00
2019-06-26T11:07:27.615Z,96217.00
2019-06-26T11:09:58.167Z,96217.00
2019-06-26T11:12:28.587Z,96217.00
2019-06-26T11:14:59.449Z,96220.00
2019-06-26T11:17:29.866Z,96217.00
2019-06-26T11:20:00.541Z,96215.00
2019-06-26T11:22:30.979Z,96223.00
2019-06-26T11:25:01.431Z,96219.00
2019-06-26T11:27:33.739Z,96216.00
2019-06-26T11:30:05.401Z,96223.00
2019-06-26T11:32:35.783Z,96214.00
2019-06-26T11:35:06.966Z,96222.00
2019-06-26T11:37:37.550Z,96227.00
2019-06-26T11:40:10.261Z,96218.00
2019-06-26T11:42:40.683Z,96220.00
2019-06-26T11:45:13.987Z,96216.00
2019-06-26T11:47:45.930Z,96219.00
2019-06-26T11:50:17.405Z,96220.00
2019-06-26T11:52:47.767Z,96221.00
2019-06-26T11:55:19.895Z,96220.00
2019-06-26T11:57:50.418Z,96214.00
2019-06-26T12:00:24.036Z,96217.00
2019-06-26T12:02:54.447Z,96209.00
2019-06-26T12:05:24.899Z,96199.00
2019-06-26T12:07:55.364Z,96218.00
2019-06-26T12:10:25.809Z,96207.00
2019-06-26T12:12:56.239Z,96211.00
2019-06-26T12:15:26.841Z,96208.00
2019-06-26T12:17:57.220Z,96208.00
2019-06-26T12:20:27.651Z,96205.00
2019-06-26T12:22:58.073Z,96214.00
2019-06-26T12:25:28.507Z,96208.00
2019-06-26T12:27:58.916Z,96210.00
2019-06-26T12:30:30.460Z,96197.00
2019-06-26T12:33:03.482Z,96200.00
2019-06-26T12:35:33.152Z,96204.00
2019-06-26T12:38:03.663Z,96206.00
2019-06-26T12:40:34.114Z,96203.00
2019-06-26T12:43:04.539Z,96198.00
2019-06-26T12:45:34.967Z,96199.00
2019-06-26T12:48:05.622Z,96196.00
2019-06-26T12:50:36.327Z,96191.00
2019-06-26T12:53:06.927Z,96194.00
2019-06-26T12:55:37.441Z,96190.00
2019-06-26T12:58:14.797Z,96190.00
2019-06-26T13:00:40.059Z,96191.00
2019-06-26T13:03:10.443Z,96190.00
2019-06-26T13:05:40.931Z,96190.00
2019-06-26T13:08:11.441Z,96189.00
2019-06-26T13:10:49.640Z,96191.00
2019-06-26T13:13:14.764Z,96188.00
2019-06-26T13:15:45.248Z,96183.00
2019-06-26T13:18:15.737Z,96182.00
2019-06-26T13:20:52.790Z,96179.00
2019-06-26T13:23:19.311Z,96184.00
2019-06-26T13:25:49.690Z,96182.00
2019-06-26T13:28:20.124Z,96182.00
2019-06-26T13:30:53.229Z,96186.00
2019-06-26T13:33:22.700Z,96180.00
2019-06-26T13:35:53.119Z,96173.00
2019-06-26T13:38:26.978Z,96175.00
2019-06-26T13:40:55.679Z,96183.00
2019-06-26T13:43:26.102Z,96176.00
2019-06-26T13:45:58.717Z,96183.00
2019-06-26T13:48:28.647Z,96183.00
2019-06-26T13:51:08.935Z,96178.00
2019-06-26T13:53:31.244Z,96187.00
2019-06-26T13:56:01.750Z,96171.00
2019-06-26T13:58:32.154Z,96178.00
2019-06-26T14:01:02.614Z,96178.00
2019-06-26T14:03:33.020Z,96176.00
2019-06-26T14:06:03.469Z,96180.00
2019-06-26T14:08:33.835Z,96163.00
2019-06-26T14:11:07.288Z,96170.00
2019-06-26T14:13:36.353Z,96175.00
2019-06-26T14:16:06.775Z,96172.00
2019-06-26T14:18:37.177Z,96168.00
2019-06-26T14:21:07.581Z,96159.00
2019-06-26T14:23:38.131Z,96161.00
2019-06-26T14:26:08.523Z,96167.00
2019-06-26T14:28:39.073Z,96157.00
2019-06-26T14:31:09.472Z,96156.00
2019-06-26T14:33:39.867Z,96164.00
2019-06-26T14:36:10.215Z,96160.00
2019-06-26T14:38:40.625Z,96155.00
2019-06-26T14:41:11.065Z,96158.00
2019-06-26T14:43:41.494Z,96159.00
2019-06-26T14:46:11.874Z,96161.00
2019-06-26T14:48:42.281Z,96159.00
2019-06-26T14:51:12.670Z,96149.00
2019-06-26T14:53:43.112Z,96152.00
2019-06-26T14:56:13.607Z,96156.00
2019-06-26T14:58:44.078Z,96147.00
2019-06-26T15:01:14.512Z,96147.00
2019-06-26T15:03:44.941Z,96136.00
2019-06-26T15:06:16.885Z,96141.00
2019-06-26T15:08:47.485Z,96139.00
2019-06-26T15:11:17.915Z,96136.00
2019-06-26T15:13:48.400Z,96138.00
2019-06-26T15:16:18.811Z,96135.00
2019-06-26T15:18:49.273Z,96133.00
2019-06-26T15:21:19.658Z,96136.00
2019-06-26T15:23:50.105Z,96133.00
2019-06-26T15:26:20.495Z,96129.00
2019-06-26T15:28:50.914Z,96134.00
2019-06-26T15:31:21.443Z,96125.00
2019-06-26T15:33:51.948Z,96126.00
2019-06-26T15:36:22.325Z,96127.00
2019-06-26T15:38:52.725Z,96121.00
2019-06-26T15:41:23.151Z,96119.00
2019-06-26T15:43:53.619Z,96115.00
2019-06-26T15:46:24.044Z,96114.00
2019-06-26T15:48:54.452Z,96117.00
2019-06-26T15:51:24.900Z,96117.00
2019-06-26T15:53:55.292Z,96110.00
2019-06-26T15:56:25.724Z,96106.00
2019-06-26T15:58:56.121Z,96113.00
2019-06-26T16:01:26.572Z,96110.00
2019-06-26T16:03:56.997Z,96100.00
2019-06-26T16:06:27.464Z,96101.00
2019-06-26T16:08:57.871Z,96110.00
2019-06-26T16:11:28.327Z,96105.00
2019-06-26T16:13:59.596Z,96109.00
2019-06-26T16:16:31.106Z,96112.00
2019-06-26T16:19:06.390Z,96106.00
2019-06-26T16:21:36.831Z,96112.00
2019-06-26T16:24:07.288Z,96117.00
2019-06-26T16:26:37.686Z,96105.00
2019-06-26T16:29:08.098Z,96116.00
2019-06-26T16:31:38.519Z,96110.00
2019-06-26T16:34:08.956Z,96106.00
2019-06-26T16:36:39.488Z,96106.00
2019-06-26T16:39:10.420Z,96107.00
2019-06-26T16:41:40.888Z,96113.00
2019-06-26T16:44:11.314Z,96108.00
2019-06-26T16:46:41.766Z,96109.00
2019-06-26T16:49:12.178Z,96102.00
2019-06-26T16:51:42.598Z,96114.00
2019-06-26T16:54:13.000Z,96102.00
2019-06-26T16:56:43.396Z,96110.00
2019-06-26T16:59:13.814Z,96107.00
2019-06-26T17:01:44.260Z,96099.00
2019-06-26T17:04:14.663Z,96105.00
2019-06-26T17:06:45.134Z,96102.00
2019-06-26T17:09:15.586Z,96098.00
2019-06-26T17:11:46.049Z,96098.00
2019-06-26T17:14:16.966Z,96103.00
2019-06-26T17:16:47.520Z,96104.00
2019-06-26T17:19:18.163Z,96106.00
2019-06-26T17:21:49.186Z,96100.00
2019-06-26T17:24:19.683Z,96108.00
2019-06-26T17:26:50.154Z,96107.00
2019-06-26T17:29:20.576Z,96109.00
2019-06-26T17:31:51.008Z,96102.00
2019-06-26T17:34:29.945Z,96104.00
2019-06-26T17:37:00.502Z,96100.00
2019-06-26T17:39:30.898Z,96101.00
2019-06-26T17:42:02.406Z,96098.00
2019-06-26T17:44:33.098Z,96099.00
2019-06-26T17:47:06.376Z,96095.00
2019-06-26T17:49:37.474Z,96097.00
2019-06-26T17:52:07.974Z,96099.00
2019-06-26T17:54:38.598Z,96096.00
2019-06-26T17:57:09.108Z,96092.00
2019-06-26T17:59:39.533Z,96091.00
2019-06-26T18:02:10.515Z,96092.00
2019-06-26T18:04:40.998Z,96098.00
2019-06-26T18:07:26.106Z,96093.00
2019-06-26T18:09:56.556Z,96094.00
2019-06-26T18:12:27.356Z,96094.00
2019-06-26T18:14:57.881Z,96099.00
2019-06-26T18:17:28.336Z,96100.00
2019-06-26T18:19:58.741Z,96103.00
2019-06-26T18:22:29.164Z,96102.00
2019-06-26T18:24:59.771Z,96099.00
2019-06-26T18:27:30.170Z,96103.00
2019-06-26T18:30:02.095Z,96097.00
2019-06-26T18:32:33.322Z,96100.00
2019-06-26T18:35:04.386Z,96088.00
2019-06-26T18:37:35.113Z,96097.00
2019-06-26T18:40:06.668Z,96103.00
2019-06-26T18:42:37.403Z,96093.00
2019-06-26T18:45:09.411Z,96100.00
2019-06-26T18:47:40.094Z,96097.00
2019-06-26T18:50:10.946Z,96092.00
2019-06-26T18:52:43.006Z,96103.00
2019-06-26T18:55:13.793Z,96093.00
2019-06-26T18:57:44.464Z,96094.00
2019-06-26T19:00:18.488Z,96102.00
2019-06-26T19:02:49.260Z,96101.00
2019-06-26T19:05:22.407Z,96097.00
2019-06-26T19:07:53.087Z,96098.00
2019-06-26T19:10:23.812Z,96100.00
2019-06-26T19:12:54.585Z,96104.00
2019-06-26T19:15:25.244Z,96102.00
2019-06-26T19:17:55.932Z,96104.00
2019-06-26T19:20:26.852Z,96101.00
2019-06-26T19:22:57.621Z,96107.00
2019-06-26T19:25:28.302Z,96105.00
2019-06-26T19:28:23.014Z,96103.00
2019-06-26T19:30:52.255Z,96109.00
2019-06-26T19:33:23.014Z,96114.00
2019-06-26T19:35:53.488Z,96118.00
2019-06-26T19:38:23.906Z,96123.00
2019-06-26T19:40:54.949Z,96129.00
2019-06-26T19:43:25.598Z,96114.00
2019-06-26T19:45:56.274Z,96116.00
2019-06-26T19:48:26.919Z,96118.00
2019-06-26T19:50:57.640Z,96126.00
2019-06-26T19:53:28.347Z,96127.00
2019-06-26T19:55:58.988Z,96123.00
2019-06-26T19:58:29.743Z,96120.00
2019-06-26T20:01:00.399Z,96122.00
2019-06-26T20:03:31.082Z,96121.00
2019-06-26T20:06:01.754Z,96120.00
2019-06-26T20:08:32.167Z,96122.00
2019-06-26T20:11:02.555Z,96121.00
2019-06-26T20:13:33.515Z,96117.00
2019-06-26T20:16:05.237Z,96111.00
2019-06-26T20:18:36.235Z,96118.00
2019-06-26T20:21:06.713Z,96115.00
2019-06-26T20:23:37.500Z,96114.00
2019-06-26T20:26:08.146Z,96111.00
2019-06-26T20:28:38.941Z,96109.00
2019-06-26T20:31:12.980Z,96098.00
2019-06-26T20:33:43.634Z,96106.00
2019-06-26T20:36:14.345Z,96106.00
2019-06-26T20:38:44.800Z,96095.00
2019-06-26T20:41:15.559Z,96100.00
2019-06-26T20:43:45.970Z,96105.00
2019-06-26T20:46:16.396Z,96110.00
2019-06-26T20:48:46.837Z,96118.00
2019-06-26T20:51:20.676Z,96120.00
2019-06-26T20:53:49.486Z,96113.00
2019-06-26T20:56:25.647Z,96108.00
2019-06-26T20:58:54.452Z,96107.00
2019-06-26T21:01:24.909Z,96106.00
2019-06-26T21:03:55.585Z,96107.00
2019-06-26T21:06:25.993Z,96108.00
2019-06-26T21:08:57.745Z,96103.00
2019-06-26T21:11:28.138Z,96111.00
2019-06-26T21:13:58.685Z,96108.00
2019-06-26T21:16:29.149Z,96106.00
2019-06-26T21:18:59.643Z,96104.00
2019-06-26T21:21:30.063Z,96109.00
2019-06-26T21:24:00.552Z,96113.00
2019-06-26T21:26:30.958Z,96109.00
2019-06-26T21:29:01.438Z,96116.00
2019-06-26T21:31:31.850Z,96113.00
2019-06-26T21:34:02.310Z,96112.00
2019-06-26T21:36:32.709Z,96119.00
2019-06-26T21:39:05.788Z,96120.00
2019-06-26T21:41:35.491Z,96114.00
2019-06-26T21:44:06.042Z,96113.00
2019-06-26T21:46:36.428Z,96110.00
2019-06-26T21:49:06.945Z,96108.00
2019-06-26T21:51:37.342Z,96116.00
2019-06-26T21:54:07.737Z,96117.00
2019-06-26T21:56:38.233Z,96120.00
2019-06-26T21:59:08.666Z,96118.00
2019-06-26T22:01:39.074Z,96125.00
2019-06-26T22:04:09.694Z,96115.00
2019-06-26T22:06:40.463Z,96126.00
2019-06-26T22:09:11.936Z,96116.00
2019-06-26T22:11:42.377Z,96113.00
2019-06-26T22:14:12.780Z,96111.00
2019-06-26T22:16:43.218Z,96110.00
2019-06-26T22:19:13.625Z,96105.00
2019-06-26T22:21:44.047Z,96112.00
2019-06-26T22:24:14.408Z,96109.00
2019-06-26T22:26:44.820Z,96105.00
2019-06-26T22:29:15.185Z,96109.00
2019-06-26T22:31:45.734Z,96113.00
2019-06-26T22:34:16.211Z,96112.00
2019-06-26T22:36:51.890Z,96111.00
2019-06-26T22:39:18.764Z,96110.00
2019-06-26T22:41:49.189Z,96105.00
2019-06-26T22:44:19.602Z,96101.00
2019-06-26T22:46:50.014Z,96107.00
2019-06-26T22:49:20.440Z,96107.00
2019-06-26T22:51:50.866Z,96113.00
2019-06-26T22:54:21.259Z,96107.00
2019-06-26T22:56:51.644Z,96106.00
2019-06-26T22:59:22.071Z,96107.00
2019-06-26T23:01:53.338Z,96102.00
2019-06-26T23:04:23.816Z,96109.00
2019-06-26T23:06:54.238Z,96104.00
2019-06-26T23:09:24.637Z,96096.00
2019-06-26T23:11:55.048Z,96107.00
2019-06-26T23:14:25.453Z,96101.00
2019-06-26T23:16:55.908Z,96102.00
2019-06-26T23:19:26.331Z,96096.00
2019-06-26T23:21:56.738Z,96101.00
2019-06-26T23:24:27.189Z,96093.00
2019-06-26T23:26:57.571Z,96101.00
2019-06-26T23:29:27.957Z,96094.00
2019-06-26T23:31:58.365Z,96094.00
2019-06-26T23:34:28.788Z,96099.00
2019-06-26T23:36:59.188Z,96086.00
2019-06-26T23:39:29.613Z,96091.00
2019-06-26T23:42:00.027Z,96086.00
2019-06-26T23:44:30.457Z,96088.00
2019-06-26T23:47:00.866Z,96096.00
2019-06-26T23:49:31.274Z,96081.00
2019-06-26T23:52:01.759Z,96079.00
2019-06-26T23:54:32.157Z,96085.00
2019-06-26T23:57:02.625Z,96082.00
2019-06-26T23:59:33.011Z,96085.00
